Time;durP1;ratioP1;P1;durP2;ratioP2;P2;SDS_P1;SDS_P2;PMS_P1;PMS_P2;Temp;Humidity;BMP_temperature;BMP_pressure;BME280_temperature;BME280_humidity;BME280_pressure;Samples;Min_cycle;Max_cycle;Signal;HPM_P1;HPM_P2
2024/03/01 00:00:11;;;;;;;28.85;12.25;;;;;;;;;;5016004;28;20052;-68
2024/03/01 00:02:57;;;;;;;30.30;12.82;;;;;;;;;;5016047;28;20069;-69
2024/03/01 00:05:42;;;;;;;32.03;14.52;;;;;;;;;;5016121;28;20022;-69
2024/03/01 00:08:28;;;;;;;31.48;13.25;;;;;;;;;;5016021;28;20410;-69
2024/03/01 00:11:14;;;;;;;32.80;14.73;;;;;;;;;;5013948;28;20026;-69
2024/03/01 00:13:59;;;;;;;32.72;13.55;;;;;;;;;;5015865;28;20033;-69
2024/03/01 00:16:45;;;;;;;31.27;12.55;;;;;;;;;;5014864;28;20022;-69
2024/03/01 00:19:31;;;;;;;29.63;11.80;;;;;;;;;;5015940;28;20466;-69
2024/03/01 00:22:16;;;;;;;33.75;13.63;;;;;;;;;;5015252;28;20025;-69
2024/03/01 00:25:02;;;;;;;29.98;13.18;;;;;;;;;;5015566;28;20029;-69
2024/03/01 00:27:48;;;;;;;30.10;14.20;;;;;;;;;;5014919;28;20127;-69
2024/03/01 00:30:33;;;;;;;35.83;16.33;;;;;;;;;;5015954;28;20030;-69
2024/03/01 00:33:19;;;;;;;35.00;15.02;;;;;;;;;;5014997;28;20030;-69
2024/03/01 00:36:05;;;;;;;34.80;14.27;;;;;;;;;;5015626;28;20464;-69
2024/03/01 00:38:51;;;;;;;34.78;12.30;;;;;;;;;;5015990;28;20368;-69
2024/03/01 00:41:36;;;;;;;29.42;12.52;;;;;;;;;;5015461;28;20511;-69
2024/03/01 00:44:22;;;;;;;31.58;14.07;;;;;;;;;;5015168;28;20566;-69
2024/03/01 00:47:07;;;;;;;29.80;12.93;;;;;;;;;;5014728;28;20037;-70
2024/03/01 00:49:53;;;;;;;34.28;13.82;;;;;;;;;;5015507;28;20056;-69
2024/03/01 00:52:39;;;;;;;37.05;14.98;;;;;;;;;;5015350;28;20036;-69
2024/03/01 00:55:24;;;;;;;33.33;13.90;;;;;;;;;;5014843;28;20117;-69
2024/03/01 00:58:10;;;;;;;31.52;14.13;;;;;;;;;;5015127;28;20025;-69
2024/03/01 01:00:56;;;;;;;32.63;13.68;;;;;;;;;;5014892;28;20022;-69
2024/03/01 01:03:41;;;;;;;30.67;14.13;;;;;;;;;;5015248;28;20550;-69
2024/03/01 01:06:27;;;;;;;33.10;13.88;;;;;;;;;;5011694;28;20117;-69
2024/03/01 01:09:13;;;;;;;32.42;14.38;;;;;;;;;;4994740;28;20015;-69
2024/03/01 01:11:58;;;;;;;30.85;14.90;;;;;;;;;;5012762;28;20034;-69
2024/03/01 01:14:44;;;;;;;38.40;16.98;;;;;;;;;;5014510;28;20041;-69
2024/03/01 01:17:30;;;;;;;33.22;14.05;;;;;;;;;;5012525;28;20025;-69
2024/03/01 01:20:16;;;;;;;40.10;15.98;;;;;;;;;;5015321;28;20108;-69
2024/03/01 01:23:02;;;;;;;37.20;15.18;;;;;;;;;;5015460;28;20025;-69
2024/03/01 01:25:47;;;;;;;35.60;16.00;;;;;;;;;;5013521;28;20030;-69
2024/03/01 01:28:33;;;;;;;35.20;14.05;;;;;;;;;;5011976;28;20502;-69
2024/03/01 01:31:19;;;;;;;42.17;16.30;;;;;;;;;;5013886;28;20108;-69
2024/03/01 01:34:05;;;;;;;33.92;15.25;;;;;;;;;;5014109;28;20026;-69
2024/03/01 01:36:51;;;;;;;31.13;15.10;;;;;;;;;;5014068;28;20105;-69
2024/03/01 01:39:36;;;;;;;32.78;14.13;;;;;;;;;;5014240;28;20087;-69
2024/03/01 01:42:22;;;;;;;37.53;14.50;;;;;;;;;;5012147;28;20103;-69
2024/03/01 01:45:09;;;;;;;36.90;13.95;;;;;;;;;;5013374;28;20395;-69
2024/03/01 01:47:54;;;;;;;35.97;14.75;;;;;;;;;;5013372;28;20025;-69
2024/03/01 01:50:40;;;;;;;34.50;15.07;;;;;;;;;;5014785;28;20492;-69
2024/03/01 01:53:26;;;;;;;29.40;14.75;;;;;;;;;;5013728;28;20033;-69
2024/03/01 01:56:13;;;;;;;34.60;14.90;;;;;;;;;;5013715;28;20014;-69
2024/03/01 01:58:59;;;;;;;37.85;15.57;;;;;;;;;;5011329;28;20030;-69
2024/03/01 02:01:45;;;;;;;42.72;16.30;;;;;;;;;;5013775;28;20028;-69
2024/03/01 02:04:30;;;;;;;37.67;13.52;;;;;;;;;;5005292;28;20372;-69
2024/03/01 02:07:16;;;;;;;35.88;16.48;;;;;;;;;;4994782;28;20022;-69
2024/03/01 02:10:09;;;;;;;32.90;13.57;;;;;;;;;;5013388;28;20030;-67
2024/03/01 02:13:00;;;;;;;41.25;16.58;;;;;;;;;;5013088;28;20510;-69
2024/03/01 02:15:46;;;;;;;38.42;15.90;;;;;;;;;;5011901;28;20072;-69
2024/03/01 02:18:33;;;;;;;36.50;14.73;;;;;;;;;;5014196;28;20025;-69
2024/03/01 02:21:22;;;;;;;36.35;15.07;;;;;;;;;;5013045;28;20395;-69
2024/03/01 02:24:08;;;;;;;37.65;15.70;;;;;;;;;;5013515;28;20116;-69
2024/03/01 02:26:57;;;;;;;34.50;15.60;;;;;;;;;;5006016;28;20088;-69
2024/03/01 02:29:42;;;;;;;37.28;17.58;;;;;;;;;;5004589;28;20022;-69
2024/03/01 02:32:28;;;;;;;48.17;16.77;;;;;;;;;;5011515;28;20057;-69
2024/03/01 02:35:14;;;;;;;42.40;16.27;;;;;;;;;;5011086;28;20036;-69
2024/03/01 02:37:59;;;;;;;41.22;17.02;;;;;;;;;;5010556;28;20033;-69
2024/03/01 02:40:45;;;;;;;43.72;14.15;;;;;;;;;;5011252;28;20388;-68
2024/03/01 02:43:31;;;;;;;41.08;16.90;;;;;;;;;;5012695;28;20026;-69
2024/03/01 02:46:16;;;;;;;43.10;17.25;;;;;;;;;;5010556;28;20022;-69
2024/03/01 02:49:03;;;;;;;43.75;17.00;;;;;;;;;;5011915;28;20518;-69
2024/03/01 02:51:48;;;;;;;39.28;15.48;;;;;;;;;;5010882;28;20037;-69
2024/03/01 02:54:34;;;;;;;42.97;17.10;;;;;;;;;;5010875;28;20029;-69
2024/03/01 02:57:19;;;;;;;40.25;15.73;;;;;;;;;;5011104;28;20053;-69
2024/03/01 03:00:10;;;;;;;36.95;16.83;;;;;;;;;;5012487;28;20026;-69
2024/03/01 03:02:56;;;;;;;36.22;15.45;;;;;;;;;;5013268;28;20033;-68
2024/03/01 03:05:42;;;;;;;42.28;14.15;;;;;;;;;;5012102;28;20400;-68
2024/03/01 03:08:27;;;;;;;42.88;16.45;;;;;;;;;;5011053;28;20030;-69
2024/03/01 03:11:13;;;;;;;40.13;16.70;;;;;;;;;;5011861;28;20036;-68
2024/03/01 03:13:59;;;;;;;50.60;17.20;;;;;;;;;;5011393;28;20022;-69
2024/03/01 03:16:44;;;;;;;39.42;17.42;;;;;;;;;;5010977;28;20022;-69
2024/03/01 03:19:30;;;;;;;34.72;15.38;;;;;;;;;;5013097;28;20054;-69
2024/03/01 03:22:19;;;;;;;44.53;18.13;;;;;;;;;;5011772;28;20022;-68
2024/03/01 03:25:05;;;;;;;41.33;16.40;;;;;;;;;;5013631;28;20026;-69
2024/03/01 03:27:50;;;;;;;41.60;15.98;;;;;;;;;;5010981;28;20108;-69
2024/03/01 03:30:36;;;;;;;43.20;15.60;;;;;;;;;;5010388;28;20506;-69
2024/03/01 03:33:22;;;;;;;43.15;17.45;;;;;;;;;;5012239;28;20026;-69
2024/03/01 03:36:10;;;;;;;42.30;17.23;;;;;;;;;;5010824;28;20018;-69
2024/03/01 03:38:56;;;;;;;41.38;17.73;;;;;;;;;;5010542;28;20037;-68
2024/03/01 03:41:42;;;;;;;44.95;16.25;;;;;;;;;;5011115;28;20518;-68
2024/03/01 03:44:28;;;;;;;38.13;16.30;;;;;;;;;;5010721;28;20033;-69
2024/03/01 03:47:13;;;;;;;46.40;16.85;;;;;;;;;;5009596;28;20034;-69
2024/03/01 03:49:59;;;;;;;39.92;15.88;;;;;;;;;;5011560;28;20509;-69
2024/03/01 03:52:45;;;;;;;41.58;14.02;;;;;;;;;;5011857;28;20380;-68
2024/03/01 03:55:30;;;;;;;44.00;17.65;;;;;;;;;;5011942;28;20096;-69
2024/03/01 03:58:16;;;;;;;39.80;15.23;;;;;;;;;;5010152;28;20084;-67
2024/03/01 04:01:05;;;;;;;47.35;18.75;;;;;;;;;;5011728;28;20143;-69
2024/03/01 04:03:52;;;;;;;42.97;16.90;;;;;;;;;;5014304;28;20193;-69
2024/03/01 04:06:37;;;;;;;41.65;16.08;;;;;;;;;;5008684;28;20512;-69
2024/03/01 04:09:23;;;;;;;36.83;15.45;;;;;;;;;;4995371;28;20439;-68
2024/03/01 04:12:09;;;;;;;43.60;15.00;;;;;;;;;;4995835;28;20443;-69
2024/03/01 04:14:55;;;;;;;42.25;16.40;;;;;;;;;;4997516;28;20030;-69
2024/03/01 04:17:40;;;;;;;46.17;17.10;;;;;;;;;;4995245;28;20109;-69
2024/03/01 04:20:27;;;;;;;41.78;16.15;;;;;;;;;;4996417;28;20488;-68
2024/03/01 04:23:12;;;;;;;39.78;15.48;;;;;;;;;;4994300;28;20480;-69
2024/03/01 04:25:58;;;;;;;46.13;15.63;;;;;;;;;;4996208;28;20475;-69
2024/03/01 04:28:43;;;;;;;49.70;17.15;;;;;;;;;;4996033;28;20060;-69
2024/03/01 04:31:29;;;;;;;44.10;19.02;;;;;;;;;;4995347;28;20025;-69
2024/03/01 04:34:15;;;;;;;43.67;17.17;;;;;;;;;;4996600;28;20023;-69
2024/03/01 04:37:01;;;;;;;46.95;18.48;;;;;;;;;;4995356;28;20034;-68
2024/03/01 04:39:47;;;;;;;41.55;17.50;;;;;;;;;;4995533;28;20022;-69
2024/03/01 04:42:34;;;;;;;49.55;18.35;;;;;;;;;;4994532;28;20053;-68
2024/03/01 04:45:20;;;;;;;52.53;21.00;;;;;;;;;;4994990;28;20054;-69
2024/03/01 04:48:05;;;;;;;49.10;17.75;;;;;;;;;;4996444;28;20026;-69
2024/03/01 04:50:52;;;;;;;46.90;16.98;;;;;;;;;;4996563;28;20447;-69
2024/03/01 04:53:38;;;;;;;41.50;16.85;;;;;;;;;;4993791;28;20042;-69
2024/03/01 04:56:24;;;;;;;46.25;18.85;;;;;;;;;;4996001;28;20022;-69
2024/03/01 04:59:09;;;;;;;42.67;18.08;;;;;;;;;;4995572;28;20026;-69
2024/03/01 05:01:55;;;;;;;52.30;17.35;;;;;;;;;;4995595;28;20060;-69
2024/03/01 05:04:41;;;;;;;44.20;18.17;;;;;;;;;;4993668;28;20027;-70
2024/03/01 05:07:27;;;;;;;51.10;19.40;;;;;;;;;;4994323;28;20109;-70
2024/03/01 05:10:12;;;;;;;42.45;16.92;;;;;;;;;;4994401;28;20034;-69
2024/03/01 05:12:58;;;;;;;51.17;20.10;;;;;;;;;;4994811;28;20168;-70
2024/03/01 05:15:44;;;;;;;48.25;19.63;;;;;;;;;;4994629;28;20054;-70
2024/03/01 05:18:29;;;;;;;47.85;17.17;;;;;;;;;;4994997;28;20195;-69
2024/03/01 05:21:15;;;;;;;48.45;18.25;;;;;;;;;;4995118;28;20019;-69
2024/03/01 05:24:01;;;;;;;51.78;22.15;;;;;;;;;;4994963;28;20018;-70
2024/03/01 05:26:46;;;;;;;51.53;20.38;;;;;;;;;;4994909;28;20057;-69
2024/03/01 05:29:32;;;;;;;44.00;15.52;;;;;;;;;;4995363;28;20463;-69
2024/03/01 05:32:17;;;;;;;46.97;18.13;;;;;;;;;;4994840;28;20248;-69
2024/03/01 05:35:07;;;;;;;51.40;19.42;;;;;;;;;;4994557;28;20034;-70
2024/03/01 05:37:56;;;;;;;54.33;18.73;;;;;;;;;;4993449;28;20024;-70
2024/03/01 05:40:42;;;;;;;52.38;20.17;;;;;;;;;;5013317;28;20026;-70
2024/03/01 05:43:27;;;;;;;52.65;18.15;;;;;;;;;;5014524;28;20487;-70
2024/03/01 05:46:14;;;;;;;51.47;20.08;;;;;;;;;;5013235;28;20109;-69
2024/03/01 05:49:00;;;;;;;49.60;19.48;;;;;;;;;;5014639;28;20026;-70
2024/03/01 05:51:45;;;;;;;54.55;20.40;;;;;;;;;;5013649;28;20026;-69
2024/03/01 05:54:31;;;;;;;51.65;19.35;;;;;;;;;;5011616;28;20545;-69
2024/03/01 05:57:17;;;;;;;50.38;20.77;;;;;;;;;;5012582;28;20538;-69
2024/03/01 06:00:39;;;;;;;52.65;19.90;;;;;;;;;;5013577;28;20034;-69
2024/03/01 06:03:15;;;;;;;50.92;20.48;;;;;;;;;;5013868;28;20029;-70
2024/03/01 06:06:01;;;;;;;54.22;20.83;;;;;;;;;;5012188;28;20026;-69
2024/03/01 06:08:46;;;;;;;54.80;19.63;;;;;;;;;;5012042;28;20120;-69
2024/03/01 06:11:32;;;;;;;53.40;20.17;;;;;;;;;;5013653;28;20113;-70
2024/03/01 06:14:18;;;;;;;64.53;19.55;;;;;;;;;;5014157;28;20459;-69
2024/03/01 06:17:04;;;;;;;58.58;22.67;;;;;;;;;;5013200;28;20026;-70
2024/03/01 06:19:49;;;;;;;51.08;20.75;;;;;;;;;;5012774;28;20487;-69
2024/03/01 06:22:35;;;;;;;66.63;21.95;;;;;;;;;;5012397;28;20056;-70
2024/03/01 06:25:20;;;;;;;59.70;22.00;;;;;;;;;;5010890;28;20042;-70
2024/03/01 06:28:06;;;;;;;52.03;20.38;;;;;;;;;;5012948;28;20021;-70
2024/03/01 06:30:52;;;;;;;56.03;22.17;;;;;;;;;;5013600;28;20507;-69
2024/03/01 06:33:40;;;;;;;63.10;20.13;;;;;;;;;;5010708;28;20457;-69
2024/03/01 06:36:26;;;;;;;51.85;20.92;;;;;;;;;;5013681;28;20096;-69
2024/03/01 06:39:11;;;;;;;58.78;21.50;;;;;;;;;;5012551;28;20456;-69
2024/03/01 06:41:57;;;;;;;58.17;21.25;;;;;;;;;;5013771;28;20056;-69
2024/03/01 06:44:43;;;;;;;52.33;20.13;;;;;;;;;;5011036;28;20026;-69
2024/03/01 06:47:33;;;;;;;59.85;21.50;;;;;;;;;;5012023;28;20030;-69
2024/03/01 06:50:18;;;;;;;46.25;18.80;;;;;;;;;;5012566;28;20026;-70
2024/03/01 06:53:04;;;;;;;59.63;22.65;;;;;;;;;;5010391;28;20061;-70
2024/03/01 06:55:50;;;;;;;63.63;21.80;;;;;;;;;;5011863;28;20022;-70
2024/03/01 06:58:35;;;;;;;50.53;19.98;;;;;;;;;;5012340;28;20104;-70
2024/03/01 07:01:21;;;;;;;62.53;21.20;;;;;;;;;;5010803;28;20018;-69
2024/03/01 07:04:06;;;;;;;56.33;21.80;;;;;;;;;;5011849;28;20085;-70
2024/03/01 07:06:52;;;;;;;52.10;19.65;;;;;;;;;;5012795;28;20026;-69
2024/03/01 07:09:38;;;;;;;55.97;20.17;;;;;;;;;;5010791;28;20041;-70
2024/03/01 07:12:24;;;;;;;52.70;20.88;;;;;;;;;;5011358;28;20050;-70
2024/03/01 07:15:10;;;;;;;51.83;20.38;;;;;;;;;;5009942;28;20057;-69
2024/03/01 07:17:57;;;;;;;51.00;19.95;;;;;;;;;;5012747;28;20105;-69
2024/03/01 07:20:43;;;;;;;53.15;21.27;;;;;;;;;;5012038;28;20034;-69
2024/03/01 07:23:28;;;;;;;59.33;24.50;;;;;;;;;;5009961;28;20033;-69
2024/03/01 07:26:14;;;;;;;48.25;18.88;;;;;;;;;;5012427;28;20459;-69
2024/03/01 07:29:00;;;;;;;54.95;19.73;;;;;;;;;;5012541;28;20022;-69
2024/03/01 07:31:45;;;;;;;50.05;19.35;;;;;;;;;;5013050;28;20073;-69
2024/03/01 07:34:31;;;;;;;56.53;21.13;;;;;;;;;;5011688;28;20022;-69
2024/03/01 07:37:16;;;;;;;50.20;19.13;;;;;;;;;;5014112;28;20053;-69
2024/03/01 07:40:04;;;;;;;53.55;20.02;;;;;;;;;;5014394;28;20029;-69
2024/03/01 07:42:50;;;;;;;48.95;20.70;;;;;;;;;;5016568;28;20033;-69
2024/03/01 07:45:36;;;;;;;48.83;19.15;;;;;;;;;;5016888;28;20109;-69
2024/03/01 07:48:21;;;;;;;47.90;19.77;;;;;;;;;;5016127;28;20029;-70
2024/03/01 07:51:07;;;;;;;48.70;18.05;;;;;;;;;;5016747;28;20402;-70
2024/03/01 07:53:54;;;;;;;45.50;20.55;;;;;;;;;;5014004;28;20032;-69
2024/03/01 07:56:39;;;;;;;49.95;20.73;;;;;;;;;;5015139;28;20110;-69
2024/03/01 07:59:25;;;;;;;48.97;20.83;;;;;;;;;;5013848;28;20022;-70
2024/03/01 08:02:11;;;;;;;50.72;19.55;;;;;;;;;;5016185;28;20479;-69
2024/03/01 08:04:57;;;;;;;49.25;19.92;;;;;;;;;;5013880;28;20049;-69
2024/03/01 08:07:42;;;;;;;45.70;19.92;;;;;;;;;;5014051;28;20034;-69
2024/03/01 08:10:34;;;;;;;44.90;18.20;;;;;;;;;;5015565;28;20025;-69
2024/03/01 08:13:20;;;;;;;52.67;20.75;;;;;;;;;;5014911;28;20102;-69
2024/03/01 08:16:08;;;;;;;53.35;20.02;;;;;;;;;;5015841;28;20033;-69
2024/03/01 08:18:54;;;;;;;51.50;19.55;;;;;;;;;;5015575;28;20037;-69
2024/03/01 08:21:39;;;;;;;43.75;18.65;;;;;;;;;;5013716;28;20109;-69
2024/03/01 08:24:25;;;;;;;51.85;19.77;;;;;;;;;;5013146;28;20024;-70
2024/03/01 08:27:11;;;;;;;46.08;18.02;;;;;;;;;;5013596;28;20496;-69
2024/03/01 08:29:57;;;;;;;52.03;18.65;;;;;;;;;;5015603;28;20507;-69
2024/03/01 08:32:45;;;;;;;49.38;18.92;;;;;;;;;;5016258;28;20025;-70
2024/03/01 08:35:31;;;;;;;56.85;21.15;;;;;;;;;;5014639;28;20117;-70
2024/03/01 08:38:38;;;;;;;46.30;17.80;;;;;;;;;;5013657;28;20025;-69
2024/03/01 08:41:25;;;;;;;58.53;19.85;;;;;;;;;;5011069;28;20053;-70
2024/03/01 08:44:44;;;;;;;48.15;19.42;;;;;;;;;;4996093;28;20026;-70
2024/03/01 08:47:37;;;;;;;48.20;17.58;;;;;;;;;;4992397;28;20393;-69
2024/03/01 08:50:23;;;;;;;43.15;17.60;;;;;;;;;;4981200;28;20484;-70
2024/03/01 08:53:31;;;;;;;52.90;19.70;;;;;;;;;;4995237;28;20073;-69
2024/03/01 08:56:18;;;;;;;50.72;20.35;;;;;;;;;;4994808;28;20022;-69
2024/03/01 08:59:27;;;;;;;52.40;21.00;;;;;;;;;;4979965;28;20110;-70
2024/03/01 09:02:46;;;;;;;44.58;18.33;;;;;;;;;;4994858;28;20026;-69
2024/03/01 09:05:39;;;;;;;53.50;20.50;;;;;;;;;;4995233;28;20037;-69
2024/03/01 09:08:35;;;;;;;46.40;20.27;;;;;;;;;;5003620;28;20017;-69
2024/03/01 09:11:21;;;;;;;53.67;20.40;;;;;;;;;;5013729;28;20030;-70
2024/03/01 09:14:20;;;;;;;41.78;17.73;;;;;;;;;;5014496;28;20480;-70
2024/03/01 09:17:11;;;;;;;40.10;18.60;;;;;;;;;;5013835;28;20017;-70
2024/03/01 09:19:58;;;;;;;49.50;18.00;;;;;;;;;;5013664;28;20383;-69
2024/03/01 09:22:44;;;;;;;43.10;17.85;;;;;;;;;;5013587;28;20101;-69
2024/03/01 09:26:00;;;;;;;47.63;18.70;;;;;;;;;;5012515;28;20021;-69
2024/03/01 09:28:46;;;;;;;47.85;18.60;;;;;;;;;;5014023;28;20026;-69
2024/03/01 09:31:32;;;;;;;50.13;19.58;;;;;;;;;;5011146;28;20064;-70
2024/03/01 09:34:18;;;;;;;48.90;17.70;;;;;;;;;;5006781;28;20019;-69
2024/03/01 09:37:07;;;;;;;54.03;19.85;;;;;;;;;;4992816;28;20026;-70
2024/03/01 09:39:54;;;;;;;47.38;18.98;;;;;;;;;;4997352;28;20033;-70
2024/03/01 09:42:51;;;;;;;49.25;19.65;;;;;;;;;;4993941;28;20033;-70
2024/03/01 09:45:46;;;;;;;50.33;18.20;;;;;;;;;;5002307;28;20047;-69
2024/03/01 09:48:51;;;;;;;47.92;18.15;;;;;;;;;;5012131;28;20025;-69
2024/03/01 09:51:46;;;;;;;44.70;19.40;;;;;;;;;;5013340;28;20104;-69
2024/03/01 09:54:39;;;;;;;48.88;18.35;;;;;;;;;;5005689;28;20049;-69
2024/03/01 09:57:29;;;;;;;44.20;18.75;;;;;;;;;;5001185;28;20026;-69
2024/03/01 10:00:39;;;;;;;39.85;17.40;;;;;;;;;;5009273;28;20025;-69
2024/03/01 10:03:28;;;;;;;44.88;16.20;;;;;;;;;;5009184;28;20439;-69
2024/03/01 10:06:22;;;;;;;44.38;16.77;;;;;;;;;;5012728;28;20032;-69
2024/03/01 10:09:25;;;;;;;43.38;16.73;;;;;;;;;;5012252;28;20022;-69
2024/03/01 10:12:37;;;;;;;36.90;15.95;;;;;;;;;;5013637;28;20364;-69
2024/03/01 10:15:32;;;;;;;45.28;17.30;;;;;;;;;;5013624;28;20029;-69
2024/03/01 10:18:29;;;;;;;53.58;18.30;;;;;;;;;;5010942;28;20080;-69
2024/03/01 10:21:30;;;;;;;48.15;16.95;;;;;;;;;;5012795;28;20021;-69
2024/03/01 10:24:35;;;;;;;40.05;17.27;;;;;;;;;;5013278;28;20104;-69
2024/03/01 10:27:28;;;;;;;51.65;17.98;;;;;;;;;;5013033;28;20049;-69
2024/03/01 10:30:20;;;;;;;42.58;18.30;;;;;;;;;;5011975;28;20029;-69
2024/03/01 10:33:16;;;;;;;48.63;18.15;;;;;;;;;;5012277;28;20029;-69
2024/03/01 10:36:12;;;;;;;39.75;17.42;;;;;;;;;;5013389;28;20020;-69
2024/03/01 10:39:37;;;;;;;42.88;17.30;;;;;;;;;;5011804;28;20030;-69
2024/03/01 10:42:25;;;;;;;40.72;18.20;;;;;;;;;;4933301;29;20102;-69
2024/03/01 10:45:20;;;;;;;37.28;16.05;;;;;;;;;;5012631;28;20064;-69
2024/03/01 10:48:05;;;;;;;51.50;18.55;;;;;;;;;;5010456;28;20172;-69
2024/03/01 10:50:56;;;;;;;43.60;17.27;;;;;;;;;;5012131;28;20463;-69
2024/03/01 10:53:51;;;;;;;46.38;17.17;;;;;;;;;;5040896;23;20064;-68
2024/03/01 10:56:37;;;;;;;40.80;16.70;;;;;;;;;;5032364;28;20017;-68
2024/03/01 10:59:34;;;;;;;36.10;16.58;;;;;;;;;;5031620;28;20022;-68
2024/03/01 11:02:26;;;;;;;40.17;16.60;;;;;;;;;;5033363;28;20069;-68
2024/03/01 11:05:22;;;;;;;43.63;18.42;;;;;;;;;;5032149;28;20498;-68
2024/03/01 11:08:26;;;;;;;43.17;17.85;;;;;;;;;;5032685;28;20044;-68
2024/03/01 11:11:20;;;;;;;48.35;17.67;;;;;;;;;;5031267;28;20504;-68
2024/03/01 11:14:08;;;;;;;43.80;16.98;;;;;;;;;;5031457;28;20506;-68
2024/03/01 11:16:55;;;;;;;45.15;16.40;;;;;;;;;;5018262;28;20022;-68
2024/03/01 11:19:42;;;;;;;40.45;16.30;;;;;;;;;;5032079;28;20026;-68
2024/03/01 11:22:29;;;;;;;41.60;16.98;;;;;;;;;;5031914;28;20109;-68
2024/03/01 11:25:15;;;;;;;35.67;16.33;;;;;;;;;;5031022;28;20021;-68
2024/03/01 11:28:09;;;;;;;42.22;17.45;;;;;;;;;;5031958;28;20033;-68
2024/03/01 11:31:00;;;;;;;41.83;16.23;;;;;;;;;;5031743;28;20022;-68
2024/03/01 11:33:48;;;;;;;45.83;15.65;;;;;;;;;;5032633;28;20491;-68
2024/03/01 11:36:45;;;;;;;35.78;15.25;;;;;;;;;;5032319;28;20029;-68
2024/03/01 11:39:53;;;;;;;42.60;16.20;;;;;;;;;;5033948;28;20043;-68
2024/03/01 11:42:53;;;;;;;38.83;16.55;;;;;;;;;;5033086;28;20025;-68
2024/03/01 11:45:58;;;;;;;42.80;17.17;;;;;;;;;;5031392;28;20025;-68
2024/03/01 11:49:02;;;;;;;39.75;15.80;;;;;;;;;;5032779;28;20025;-68
2024/03/01 11:52:29;;;;;;;46.28;16.70;;;;;;;;;;5033304;28;20022;-68
2024/03/01 11:55:54;;;;;;;38.35;15.80;;;;;;;;;;5032427;28;20112;-68
2024/03/01 11:58:47;;;;;;;39.35;17.17;;;;;;;;;;5031112;28;20026;-68
2024/03/01 12:01:41;;;;;;;43.53;17.10;;;;;;;;;;5032989;28;20029;-69
2024/03/01 12:04:45;;;;;;;33.28;14.82;;;;;;;;;;5030499;28;20061;-68
2024/03/01 12:07:44;;;;;;;37.78;14.20;;;;;;;;;;5032886;28;20032;-68
2024/03/01 12:10:58;;;;;;;37.83;14.82;;;;;;;;;;5031782;28;20024;-68
2024/03/01 12:13:50;;;;;;;40.05;14.63;;;;;;;;;;5032131;28;20044;-68
2024/03/01 12:16:39;;;;;;;36.83;16.40;;;;;;;;;;5030587;28;20017;-68
2024/03/01 12:19:38;;;;;;;35.70;16.02;;;;;;;;;;5033714;28;20022;-68
2024/03/01 12:22:48;;;;;;;37.20;15.23;;;;;;;;;;5019192;28;20029;-68
2024/03/01 12:25:36;;;;;;;42.80;16.55;;;;;;;;;;5034515;28;20025;-68
2024/03/01 12:28:50;;;;;;;38.17;15.38;;;;;;;;;;5020285;28;20104;-68
2024/03/01 12:31:55;;;;;;;36.70;14.40;;;;;;;;;;5035076;28;20410;-68
2024/03/01 12:35:02;;;;;;;37.85;16.58;;;;;;;;;;5035354;28;20047;-68
2024/03/01 12:38:09;;;;;;;42.83;17.65;;;;;;;;;;5035277;28;20021;-69
2024/03/01 12:41:31;;;;;;;37.08;16.63;;;;;;;;;;5033832;28;20030;-68
2024/03/01 12:44:30;;;;;;;46.40;18.13;;;;;;;;;;5035906;28;20029;-68
2024/03/01 12:47:45;;;;;;;42.13;17.08;;;;;;;;;;5034332;28;20196;-68
2024/03/01 12:50:43;;;;;;;42.75;15.98;;;;;;;;;;5033767;28;20489;-68
2024/03/01 12:53:42;;;;;;;41.00;15.85;;;;;;;;;;5036191;28;20034;-68
2024/03/01 12:56:48;;;;;;;39.35;17.17;;;;;;;;;;5035053;28;20044;-68
2024/03/01 12:59:37;;;;;;;46.38;19.02;;;;;;;;;;5033795;28;20033;-68
2024/03/01 13:02:30;;;;;;;44.85;17.10;;;;;;;;;;5034302;28;20100;-68
2024/03/01 13:05:36;;;;;;;41.65;18.98;;;;;;;;;;5032588;28;20141;-68
2024/03/01 13:08:38;;;;;;;47.63;17.27;;;;;;;;;;5033830;28;20056;-68
2024/03/01 13:11:23;;;;;;;49.15;17.45;;;;;;;;;;5017232;28;20030;-68
2024/03/01 13:14:22;;;;;;;39.63;19.40;;;;;;;;;;5013665;28;20022;-68
2024/03/01 13:17:23;;;;;;;42.38;17.92;;;;;;;;;;5026117;28;20022;-68
2024/03/01 13:20:30;;;;;;;43.08;18.27;;;;;;;;;;5034125;28;20041;-69
2024/03/01 13:23:35;;;;;;;48.92;18.23;;;;;;;;;;5032968;28;20021;-68
2024/03/01 13:26:53;;;;;;;42.35;18.08;;;;;;;;;;5032156;28;20049;-68
2024/03/01 13:29:42;;;;;;;35.17;14.88;;;;;;;;;;4994203;28;20441;-68
2024/03/01 13:32:37;;;;;;;43.67;16.95;;;;;;;;;;5033444;28;20028;-68
2024/03/01 13:35:23;;;;;;;34.15;14.65;;;;;;;;;;5032834;28;20025;-68
2024/03/01 13:38:37;;;;;;;27.90;14.32;;;;;;;;;;5034593;28;20018;-68
2024/03/01 13:41:28;;;;;;;31.45;13.95;;;;;;;;;;5033428;28;20049;-68
2024/03/01 13:44:28;;;;;;;30.88;12.55;;;;;;;;;;5032617;28;20116;-68
2024/03/01 13:47:19;;;;;;;23.02;11.07;;;;;;;;;;5034449;28;20022;-68
2024/03/01 13:50:07;;;;;;;26.92;12.05;;;;;;;;;;5033213;28;20079;-68
2024/03/01 13:52:54;;;;;;;21.83;9.48;;;;;;;;;;5032570;28;20132;-68
2024/03/01 13:55:41;;;;;;;22.30;9.60;;;;;;;;;;5034391;28;20041;-68
2024/03/01 13:58:30;;;;;;;20.40;8.75;;;;;;;;;;5034304;28;20505;-68
2024/03/01 14:01:16;;;;;;;16.33;7.78;;;;;;;;;;5033407;28;20029;-68
2024/03/01 14:04:01;;;;;;;15.35;7.15;;;;;;;;;;5033850;28;20482;-68
2024/03/01 14:06:47;;;;;;;14.50;6.63;;;;;;;;;;5034058;28;20071;-67
2024/03/01 14:09:33;;;;;;;11.55;6.18;;;;;;;;;;5034148;28;20025;-68
2024/03/01 14:12:19;;;;;;;14.07;6.25;;;;;;;;;;5034152;28;20033;-68
2024/03/01 14:15:13;;;;;;;11.50;5.32;;;;;;;;;;5033166;28;20017;-68
2024/03/01 14:18:00;;;;;;;6.85;4.35;;;;;;;;;;5032942;28;20021;-68
2024/03/01 14:20:46;;;;;;;8.45;4.18;;;;;;;;;;5033422;28;20438;-68
2024/03/01 14:23:32;;;;;;;4.80;3.15;;;;;;;;;;5033324;28;20025;-68
2024/03/01 14:26:17;;;;;;;7.00;2.22;;;;;;;;;;5032001;28;20036;-68
2024/03/01 14:29:05;;;;;;;5.03;2.45;;;;;;;;;;5033490;28;20164;-68
2024/03/01 14:32:05;;;;;;;6.35;2.60;;;;;;;;;;5031905;28;20453;-68
2024/03/01 14:34:50;;;;;;;9.75;4.10;;;;;;;;;;5031137;28;20022;-68
2024/03/01 14:37:36;;;;;;;7.10;2.92;;;;;;;;;;5034052;28;20029;-68
2024/03/01 14:40:26;;;;;;;3.53;2.50;;;;;;;;;;5032879;28;20017;-68
2024/03/01 14:43:11;;;;;;;10.25;3.22;;;;;;;;;;5033368;28;20021;-68
2024/03/01 14:45:57;;;;;;;5.50;2.95;;;;;;;;;;5030161;28;20079;-68
2024/03/01 14:48:46;;;;;;;5.60;2.63;;;;;;;;;;5032673;28;20467;-68
2024/03/01 14:51:32;;;;;;;6.03;3.05;;;;;;;;;;5032815;28;20029;-68
2024/03/01 14:54:27;;;;;;;8.30;3.95;;;;;;;;;;5032629;28;20024;-68
2024/03/01 14:57:16;;;;;;;8.75;2.92;;;;;;;;;;5030514;28;20152;-68
2024/03/01 15:00:03;;;;;;;7.95;3.30;;;;;;;;;;5026428;28;20033;-68
2024/03/01 15:02:48;;;;;;;10.45;3.55;;;;;;;;;;5024971;28;20038;-68
2024/03/01 15:05:35;;;;;;;10.93;2.90;;;;;;;;;;5020648;28;20029;-68
2024/03/01 15:08:21;;;;;;;9.27;3.00;;;;;;;;;;5022744;28;20026;-68
2024/03/01 15:11:11;;;;;;;3.78;2.25;;;;;;;;;;5017209;28;20035;-68
2024/03/01 15:14:10;;;;;;;4.75;2.33;;;;;;;;;;5019232;28;20026;-68
2024/03/01 15:17:07;;;;;;;9.52;3.03;;;;;;;;;;5016991;28;20026;-68
2024/03/01 15:19:53;;;;;;;7.15;3.10;;;;;;;;;;5024279;28;20035;-68
2024/03/01 15:22:39;;;;;;;8.48;3.47;;;;;;;;;;5020922;28;20044;-68
2024/03/01 15:25:25;;;;;;;6.90;2.97;;;;;;;;;;5016918;28;20025;-68
2024/03/01 15:28:11;;;;;;;8.18;3.08;;;;;;;;;;5016802;28;20376;-68
2024/03/01 15:30:56;;;;;;;7.63;3.13;;;;;;;;;;5025101;28;20039;-68
2024/03/01 15:33:42;;;;;;;8.63;3.20;;;;;;;;;;5020442;28;20057;-68
2024/03/01 15:36:28;;;;;;;13.50;3.50;;;;;;;;;;5022320;28;20026;-68
2024/03/01 15:39:14;;;;;;;7.30;3.00;;;;;;;;;;5025117;28;20022;-68
2024/03/01 15:42:00;;;;;;;8.73;3.15;;;;;;;;;;5018136;28;20461;-68
2024/03/01 15:44:47;;;;;;;16.55;3.30;;;;;;;;;;5025296;28;20411;-70
2024/03/01 15:47:34;;;;;;;8.05;3.78;;;;;;;;;;5025646;28;20056;-70
2024/03/01 15:50:20;;;;;;;8.57;4.20;;;;;;;;;;5020225;28;20034;-69
2024/03/01 15:53:06;;;;;;;10.23;3.95;;;;;;;;;;5020180;28;20505;-69
2024/03/01 15:56:00;;;;;;;12.15;3.88;;;;;;;;;;5014178;28;20033;-69
2024/03/01 15:58:46;;;;;;;10.73;4.28;;;;;;;;;;5028772;28;20049;-69
2024/03/01 16:01:32;;;;;;;11.50;4.05;;;;;;;;;;5028845;28;20037;-70
2024/03/01 16:04:17;;;;;;;9.38;4.57;;;;;;;;;;5023283;28;20033;-69
2024/03/01 16:07:05;;;;;;;8.88;3.72;;;;;;;;;;5020777;28;20025;-69
2024/03/01 16:09:51;;;;;;;9.77;3.47;;;;;;;;;;5022695;28;20030;-70
2024/03/01 16:12:37;;;;;;;9.68;4.72;;;;;;;;;;5023334;28;20050;-70
2024/03/01 16:15:24;;;;;;;6.57;3.92;;;;;;;;;;5024261;28;20084;-70
2024/03/01 16:18:10;;;;;;;9.05;4.15;;;;;;;;;;5017370;28;20024;-70
2024/03/01 16:20:56;;;;;;;11.55;3.55;;;;;;;;;;5021953;28;20406;-70
2024/03/01 16:23:43;;;;;;;10.75;4.40;;;;;;;;;;5020434;28;20034;-70
2024/03/01 16:26:29;;;;;;;8.38;4.70;;;;;;;;;;5031169;28;20128;-70
2024/03/01 16:29:14;;;;;;;11.05;5.28;;;;;;;;;;5027287;28;20580;-69
2024/03/01 16:32:01;;;;;;;7.55;4.22;;;;;;;;;;5020953;28;20039;-68